OMD193 KIAH-KMZJ
Flight info
| Callsign | OMD193 |
|---|---|
| Flight time | 2h 25m |
| Altitude | 32000 |
| Route | PITZZ5 CRGER JCT J86 ELP J2 TUS |
| Aircraft | A21N/M-SDE2E3FGHIRWXY/LB1 |
Departure
| Time | 2026-05-08 02:12 |
|---|---|
| Airport | George Bush Intercontinental Airport (KIAH) |
Arrival
| Time | 2026-05-08 04:38 |
|---|---|
| Airport | Pinal Airpark (KMZJ) |
| Time | Latitude | Longitude | Altitude | Speed | Heading |
|---|---|---|---|---|---|
| 2026-05-08 01:42 | 29.96023 | -95.33576 | 113 ft | 0 kts | 150° |
| 2026-05-08 01:58 | 29.96024 | -95.33576 | 113 ft | 0 kts | 150° |
| 2026-05-08 01:59 | 29.96048 | -95.33592 | 113 ft | 2 kts | 150° |
| 2026-05-08 01:59 | 29.96082 | -95.33614 | 109 ft | 2 kts | 150° |
| 2026-05-08 01:59 | 29.96097 | -95.33624 | 113 ft | 0 kts | 150° |
| 2026-05-08 02:00 | 29.96099 | -95.33625 | 111 ft | 0 kts | 151° |
| 2026-05-08 02:00 | 29.96100 | -95.33626 | 111 ft | 0 kts | 151° |
| 2026-05-08 02:00 | 29.96101 | -95.33626 | 113 ft | 0 kts | 151° |
| 2026-05-08 02:00 | 29.96077 | -95.33612 | 113 ft | 2 kts | 155° |
| 2026-05-08 02:01 | 29.96066 | -95.33606 | 113 ft | 1 kts | 155° |
| 2026-05-08 02:01 | 29.96070 | -95.33609 | 113 ft | 0 kts | 155° |
| 2026-05-08 02:02 | 29.96064 | -95.33600 | 112 ft | 3 kts | 115° |
| 2026-05-08 02:02 | 29.96084 | -95.33595 | 113 ft | 5 kts | 298° |
| 2026-05-08 02:02 | 29.96065 | -95.33653 | 111 ft | 4 kts | 238° |
| 2026-05-08 02:02 | 29.96059 | -95.33665 | 111 ft | 4 kts | 238° |
| 2026-05-08 02:03 | 29.96043 | -95.33699 | 113 ft | 0 kts | 244° |
| 2026-05-08 02:04 | 29.96047 | -95.33770 | 112 ft | 9 kts | 315° |
| 2026-05-08 02:04 | 29.96204 | -95.33862 | 112 ft | 16 kts | 332° |
| 2026-05-08 02:04 | 29.96364 | -95.33959 | 112 ft | 1 kts | 331° |
| 2026-05-08 02:05 | 29.96389 | -95.33974 | 111 ft | 7 kts | 331° |
| 2026-05-08 02:05 | 29.96441 | -95.34007 | 111 ft | 10 kts | 331° |
| 2026-05-08 02:05 | 29.96523 | -95.34056 | 112 ft | 16 kts | 332° |
| 2026-05-08 02:05 | 29.96627 | -95.34121 | 112 ft | 18 kts | 331° |
| 2026-05-08 02:06 | 29.96749 | -95.34195 | 112 ft | 21 kts | 332° |
| 2026-05-08 02:06 | 29.96805 | -95.34318 | 112 ft | 17 kts | 246° |
| 2026-05-08 02:06 | 29.96886 | -95.34409 | 112 ft | 20 kts | 332° |
| 2026-05-08 02:06 | 29.97015 | -95.34488 | 113 ft | 22 kts | 332° |
| 2026-05-08 02:07 | 29.97159 | -95.34576 | 113 ft | 25 kts | 332° |
| 2026-05-08 02:07 | 29.97319 | -95.34672 | 112 ft | 27 kts | 332° |
| 2026-05-08 02:07 | 29.97491 | -95.34778 | 112 ft | 29 kts | 332° |
| 2026-05-08 02:07 | 29.97672 | -95.34889 | 112 ft | 24 kts | 332° |
| 2026-05-08 02:08 | 29.97824 | -95.34981 | 113 ft | 26 kts | 332° |
| 2026-05-08 02:08 | 29.97992 | -95.35084 | 113 ft | 29 kts | 332° |
| 2026-05-08 02:08 | 29.98176 | -95.35194 | 113 ft | 31 kts | 333° |
| 2026-05-08 02:08 | 29.98368 | -95.35315 | 113 ft | 31 kts | 333° |
| 2026-05-08 02:09 | 29.98509 | -95.35401 | 112 ft | 19 kts | 332° |
| 2026-05-08 02:09 | 29.98633 | -95.35476 | 111 ft | 21 kts | 332° |
| 2026-05-08 02:09 | 29.98759 | -95.35554 | 112 ft | 9 kts | 329° |
| 2026-05-08 02:09 | 29.98777 | -95.35605 | 112 ft | 9 kts | 266° |
| 2026-05-08 02:10 | 29.98759 | -95.35647 | 112 ft | 0 kts | 240° |
| 2026-05-08 02:11 | 29.98754 | -95.35657 | 111 ft | 4 kts | 240° |
| 2026-05-08 02:11 | 29.98728 | -95.35706 | 111 ft | 10 kts | 227° |
| 2026-05-08 02:11 | 29.98651 | -95.35700 | 113 ft | 14 kts | 145° |
| 2026-05-08 02:11 | 29.98504 | -95.35610 | 113 ft | 55 kts | 152° |
| 2026-05-08 02:12 | 29.97883 | -95.35201 | 114 ft | 144 kts | 155° |
| 2026-05-08 02:12 | 29.96793 | -95.34576 | 249 ft | 193 kts | 150° |
| 2026-05-08 02:12 | 29.95631 | -95.33899 | 1296 ft | 183 kts | 148° |
| 2026-05-08 02:12 | 29.94311 | -95.33558 | 2005 ft | 212 kts | 182° |
| 2026-05-08 02:13 | 29.92947 | -95.34306 | 2791 ft | 228 kts | 220° |
| 2026-05-08 02:13 | 29.91937 | -95.35743 | 3518 ft | 241 kts | 237° |
| 2026-05-08 02:13 | 29.91073 | -95.37492 | 4282 ft | 256 kts | 241° |
| 2026-05-08 02:13 | 29.90206 | -95.39361 | 4797 ft | 271 kts | 241° |
| 2026-05-08 02:14 | 29.89319 | -95.41287 | 4985 ft | 272 kts | 241° |
| 2026-05-08 02:14 | 29.88431 | -95.43212 | 5031 ft | 273 kts | 242° |
| 2026-05-08 02:14 | 29.87505 | -95.45106 | 5478 ft | 271 kts | 239° |
| 2026-05-08 02:14 | 29.86547 | -95.46986 | 6532 ft | 279 kts | 240° |
| 2026-05-08 02:15 | 29.85561 | -95.48930 | 7678 ft | 280 kts | 241° |
| 2026-05-08 02:15 | 29.84589 | -95.50879 | 8882 ft | 281 kts | 242° |
| 2026-05-08 02:15 | 29.83675 | -95.52860 | 10072 ft | 281 kts | 247° |
| 2026-05-08 02:15 | 29.83122 | -95.55057 | 10818 ft | 298 kts | 263° |
| 2026-05-08 02:16 | 29.83230 | -95.57553 | 11391 ft | 321 kts | 281° |
| 2026-05-08 02:16 | 29.84089 | -95.60010 | 12059 ft | 340 kts | 296° |
| 2026-05-08 02:16 | 29.85270 | -95.62359 | 12993 ft | 347 kts | 297° |
| 2026-05-08 02:16 | 29.86517 | -95.64759 | 13971 ft | 351 kts | 297° |
| 2026-05-08 02:17 | 29.87769 | -95.67221 | 14952 ft | 353 kts | 295° |
| 2026-05-08 02:17 | 29.89004 | -95.69678 | 15965 ft | 355 kts | 294° |
| 2026-05-08 02:17 | 29.90238 | -95.72150 | 16967 ft | 357 kts | 293° |
| 2026-05-08 02:17 | 29.91467 | -95.74648 | 17941 ft | 359 kts | 292° |
| 2026-05-08 02:18 | 29.92704 | -95.77167 | 18797 ft | 362 kts | 292° |
| 2026-05-08 02:18 | 29.93950 | -95.79702 | 19539 ft | 365 kts | 292° |
| 2026-05-08 02:18 | 29.95211 | -95.82260 | 20335 ft | 368 kts | 292° |
| 2026-05-08 02:18 | 29.96461 | -95.84803 | 21107 ft | 371 kts | 292° |
| 2026-05-08 02:19 | 29.97757 | -95.87440 | 21895 ft | 375 kts | 293° |
| 2026-05-08 02:19 | 29.99045 | -95.90061 | 22711 ft | 378 kts | 293° |
| 2026-05-08 02:19 | 30.00346 | -95.92708 | 23512 ft | 380 kts | 293° |
| 2026-05-08 02:19 | 30.01657 | -95.95368 | 24121 ft | 383 kts | 293° |
| 2026-05-08 02:20 | 30.02960 | -95.98011 | 24737 ft | 386 kts | 293° |
| 2026-05-08 02:20 | 30.04295 | -96.00736 | 25344 ft | 388 kts | 293° |
| 2026-05-08 02:20 | 30.05645 | -96.03491 | 25959 ft | 392 kts | 292° |
| 2026-05-08 02:20 | 30.06817 | -96.06314 | 26554 ft | 389 kts | 285° |
| 2026-05-08 02:21 | 30.07525 | -96.09261 | 27122 ft | 386 kts | 277° |
| 2026-05-08 02:21 | 30.08007 | -96.12321 | 27720 ft | 388 kts | 275° |
| 2026-05-08 02:21 | 30.08472 | -96.15401 | 28296 ft | 392 kts | 275° |
| 2026-05-08 02:21 | 30.08953 | -96.18553 | 28868 ft | 395 kts | 275° |
| 2026-05-08 02:22 | 30.09430 | -96.21688 | 29412 ft | 398 kts | 275° |
| 2026-05-08 02:22 | 30.09903 | -96.24795 | 30041 ft | 398 kts | 275° |
| 2026-05-08 02:22 | 30.10378 | -96.27932 | 30679 ft | 395 kts | 275° |
| 2026-05-08 02:22 | 30.10846 | -96.31038 | 31326 ft | 392 kts | 275° |
| 2026-05-08 02:23 | 30.11328 | -96.34135 | 31966 ft | 389 kts | 275° |
| 2026-05-08 02:23 | 30.11797 | -96.37201 | 32598 ft | 386 kts | 275° |
| 2026-05-08 02:23 | 30.12266 | -96.40238 | 33226 ft | 383 kts | 274° |
| 2026-05-08 02:23 | 30.12730 | -96.43256 | 33835 ft | 380 kts | 274° |
| 2026-05-08 02:24 | 30.13186 | -96.46251 | 34356 ft | 377 kts | 274° |
| 2026-05-08 02:24 | 30.13644 | -96.49233 | 34836 ft | 375 kts | 274° |
| 2026-05-08 02:24 | 30.14092 | -96.52180 | 35308 ft | 373 kts | 274° |
| 2026-05-08 02:24 | 30.14530 | -96.55128 | 35819 ft | 371 kts | 274° |
| 2026-05-08 02:25 | 30.14970 | -96.58061 | 36284 ft | 369 kts | 274° |
| 2026-05-08 02:25 | 30.15408 | -96.60972 | 36741 ft | 366 kts | 274° |
| 2026-05-08 02:25 | 30.15847 | -96.63868 | 37173 ft | 365 kts | 274° |
| 2026-05-08 02:25 | 30.16278 | -96.66733 | 37583 ft | 363 kts | 274° |
| 2026-05-08 02:26 | 30.16714 | -96.69607 | 37899 ft | 363 kts | 274° |
| 2026-05-08 02:26 | 30.17134 | -96.72473 | 37943 ft | 360 kts | 274° |
| 2026-05-08 02:26 | 30.18004 | -96.78185 | 37949 ft | 360 kts | 274° |
| 2026-05-08 02:27 | 30.18859 | -96.83881 | 37933 ft | 360 kts | 274° |
| 2026-05-08 02:27 | 30.19697 | -96.89564 | 37962 ft | 359 kts | 274° |
| 2026-05-08 02:28 | 30.20534 | -96.95267 | 37962 ft | 361 kts | 274° |
| 2026-05-08 02:28 | 30.21500 | -97.01097 | 38072 ft | 378 kts | 277° |
| 2026-05-08 02:29 | 30.22778 | -97.07020 | 38040 ft | 381 kts | 277° |
| 2026-05-08 02:29 | 30.24047 | -97.12964 | 38026 ft | 381 kts | 277° |
| 2026-05-08 02:30 | 30.25094 | -97.17910 | 38045 ft | 381 kts | 277° |
| 2026-05-08 02:30 | 30.26339 | -97.23868 | 38047 ft | 381 kts | 277° |
| 2026-05-08 02:31 | 30.27586 | -97.29810 | 38074 ft | 380 kts | 277° |
| 2026-05-08 02:31 | 30.28825 | -97.35765 | 38072 ft | 380 kts | 277° |
| 2026-05-08 02:32 | 30.30055 | -97.41722 | 38076 ft | 380 kts | 277° |
| 2026-05-08 02:32 | 30.31286 | -97.47677 | 38091 ft | 380 kts | 277° |
| 2026-05-08 02:33 | 30.32526 | -97.53629 | 38096 ft | 380 kts | 277° |
| 2026-05-08 02:33 | 30.33765 | -97.59582 | 38114 ft | 380 kts | 276° |
| 2026-05-08 02:34 | 30.34994 | -97.65523 | 38103 ft | 379 kts | 276° |
| 2026-05-08 02:34 | 30.36192 | -97.71453 | 38102 ft | 379 kts | 276° |
| 2026-05-08 02:35 | 30.37404 | -97.77385 | 38106 ft | 379 kts | 276° |
| 2026-05-08 02:35 | 30.38639 | -97.83335 | 38108 ft | 379 kts | 276° |
| 2026-05-08 02:36 | 30.39862 | -97.89255 | 38112 ft | 379 kts | 276° |
| 2026-05-08 02:36 | 30.41080 | -97.95212 | 38114 ft | 379 kts | 276° |
| 2026-05-08 02:37 | 30.42275 | -98.01133 | 38117 ft | 377 kts | 276° |
| 2026-05-08 02:37 | 30.43493 | -98.07071 | 38120 ft | 377 kts | 276° |
| 2026-05-08 02:38 | 30.44685 | -98.12950 | 38126 ft | 377 kts | 276° |
| 2026-05-08 02:38 | 30.45866 | -98.18917 | 38126 ft | 377 kts | 276° |
| 2026-05-08 02:39 | 30.47035 | -98.24776 | 38122 ft | 377 kts | 276° |
| 2026-05-08 02:39 | 30.48259 | -98.30746 | 38126 ft | 377 kts | 276° |
| 2026-05-08 02:40 | 30.49443 | -98.36683 | 38127 ft | 377 kts | 276° |
| 2026-05-08 02:40 | 30.50635 | -98.42608 | 38127 ft | 378 kts | 276° |
| 2026-05-08 02:41 | 30.51815 | -98.48552 | 38124 ft | 377 kts | 276° |
| 2026-05-08 02:41 | 30.52986 | -98.54480 | 38132 ft | 378 kts | 276° |
| 2026-05-08 02:42 | 30.54169 | -98.60417 | 38129 ft | 377 kts | 276° |
| 2026-05-08 02:42 | 30.55345 | -98.66360 | 38144 ft | 377 kts | 276° |
| 2026-05-08 02:43 | 30.56515 | -98.72303 | 38142 ft | 378 kts | 275° |
| 2026-05-08 02:43 | 30.57672 | -98.78245 | 38129 ft | 381 kts | 275° |
| 2026-05-08 02:44 | 30.58857 | -98.84249 | 38121 ft | 381 kts | 276° |
| 2026-05-08 02:44 | 30.60036 | -98.90243 | 38121 ft | 381 kts | 275° |
| 2026-05-08 02:45 | 30.61215 | -98.96263 | 38116 ft | 381 kts | 275° |
| 2026-05-08 02:45 | 30.62373 | -99.02263 | 38118 ft | 381 kts | 275° |
| 2026-05-08 02:46 | 30.63533 | -99.08264 | 38118 ft | 381 kts | 275° |
| 2026-05-08 02:46 | 30.64692 | -99.14252 | 38124 ft | 378 kts | 275° |
| 2026-05-08 02:47 | 30.65843 | -99.20215 | 38102 ft | 377 kts | 275° |
| 2026-05-08 02:47 | 30.66975 | -99.26157 | 38101 ft | 377 kts | 275° |
| 2026-05-08 02:48 | 30.68114 | -99.32079 | 38110 ft | 377 kts | 275° |
| 2026-05-08 02:48 | 30.69280 | -99.38057 | 38112 ft | 377 kts | 275° |
| 2026-05-08 02:49 | 30.70425 | -99.44010 | 38100 ft | 377 kts | 275° |
| 2026-05-08 02:49 | 30.71561 | -99.49958 | 38110 ft | 377 kts | 274° |
| 2026-05-08 02:50 | 30.72691 | -99.55919 | 38091 ft | 378 kts | 275° |
| 2026-05-08 02:50 | 30.73812 | -99.61881 | 38095 ft | 377 kts | 274° |
| 2026-05-08 02:51 | 30.74931 | -99.67849 | 38100 ft | 378 kts | 275° |
| 2026-05-08 02:51 | 30.76060 | -99.73816 | 38094 ft | 378 kts | 274° |
| 2026-05-08 02:52 | 30.77196 | -99.79793 | 38091 ft | 378 kts | 274° |
| 2026-05-08 02:52 | 30.78313 | -99.85720 | 38109 ft | 375 kts | 274° |
| 2026-05-08 02:53 | 30.79421 | -99.91649 | 38097 ft | 375 kts | 274° |
| 2026-05-08 02:53 | 30.80523 | -99.97582 | 38098 ft | 375 kts | 274° |
| 2026-05-08 02:54 | 30.81621 | -100.03511 | 38094 ft | 375 kts | 274° |
| 2026-05-08 02:54 | 30.82733 | -100.09436 | 38097 ft | 375 kts | 274° |
| 2026-05-08 02:55 | 30.84391 | -100.18341 | 38119 ft | 374 kts | 275° |
| 2026-05-08 02:56 | 30.85476 | -100.24241 | 38099 ft | 374 kts | 275° |
| 2026-05-08 02:56 | 30.86564 | -100.30165 | 38089 ft | 374 kts | 275° |
| 2026-05-08 02:57 | 30.87652 | -100.36091 | 38087 ft | 374 kts | 275° |
| 2026-05-08 02:57 | 30.88742 | -100.42012 | 38091 ft | 374 kts | 275° |
| 2026-05-08 02:58 | 30.89824 | -100.47949 | 38090 ft | 374 kts | 274° |
| 2026-05-08 02:58 | 30.90904 | -100.53870 | 38092 ft | 374 kts | 275° |
| 2026-05-08 02:59 | 30.91992 | -100.59797 | 38097 ft | 375 kts | 274° |
| 2026-05-08 02:59 | 30.93071 | -100.65752 | 38089 ft | 376 kts | 274° |
| 2026-05-08 03:00 | 30.94146 | -100.71721 | 38088 ft | 376 kts | 274° |
| 2026-05-08 03:00 | 30.95212 | -100.77695 | 38087 ft | 376 kts | 274° |
| 2026-05-08 03:01 | 30.96287 | -100.83660 | 38086 ft | 376 kts | 274° |
| 2026-05-08 03:01 | 30.97356 | -100.89625 | 38085 ft | 376 kts | 274° |
| 2026-05-08 03:02 | 30.98427 | -100.95597 | 38086 ft | 376 kts | 274° |
| 2026-05-08 03:02 | 30.99482 | -101.01567 | 38085 ft | 376 kts | 274° |
| 2026-05-08 03:03 | 31.00544 | -101.07535 | 38085 ft | 376 kts | 274° |
| 2026-05-08 03:03 | 31.01590 | -101.13512 | 38084 ft | 376 kts | 274° |
| 2026-05-08 03:04 | 31.02630 | -101.19485 | 38082 ft | 376 kts | 274° |
| 2026-05-08 03:04 | 31.03682 | -101.25456 | 38094 ft | 377 kts | 273° |
| 2026-05-08 03:05 | 31.04734 | -101.31445 | 38092 ft | 377 kts | 273° |
| 2026-05-08 03:05 | 31.05795 | -101.37438 | 38077 ft | 377 kts | 273° |
| 2026-05-08 03:06 | 31.06841 | -101.43431 | 38079 ft | 377 kts | 272° |
| 2026-05-08 03:06 | 31.07707 | -101.48414 | 38073 ft | 377 kts | 272° |
| 2026-05-08 03:07 | 31.08745 | -101.54405 | 38073 ft | 377 kts | 272° |
| 2026-05-08 03:07 | 31.09790 | -101.60398 | 38069 ft | 377 kts | 272° |
| 2026-05-08 03:08 | 31.10826 | -101.66397 | 38068 ft | 377 kts | 273° |
| 2026-05-08 03:08 | 31.11873 | -101.72377 | 38072 ft | 376 kts | 272° |
| 2026-05-08 03:09 | 31.12893 | -101.78315 | 38065 ft | 376 kts | 272° |
| 2026-05-08 03:09 | 31.13915 | -101.84269 | 38061 ft | 375 kts | 272° |
| 2026-05-08 03:10 | 31.14941 | -101.90265 | 38049 ft | 375 kts | 272° |
| 2026-05-08 03:10 | 31.15958 | -101.96256 | 38055 ft | 375 kts | 272° |
| 2026-05-08 03:11 | 31.16947 | -102.02236 | 38048 ft | 375 kts | 272° |
| 2026-05-08 03:11 | 31.17964 | -102.08216 | 38034 ft | 376 kts | 272° |
| 2026-05-08 03:12 | 31.18989 | -102.14225 | 38036 ft | 376 kts | 272° |
| 2026-05-08 03:12 | 31.20003 | -102.20219 | 38032 ft | 377 kts | 272° |
| 2026-05-08 03:13 | 31.21009 | -102.26226 | 38061 ft | 376 kts | 271° |
| 2026-05-08 03:13 | 31.22010 | -102.32224 | 38019 ft | 376 kts | 271° |
| 2026-05-08 03:14 | 31.23009 | -102.38215 | 38005 ft | 376 kts | 271° |
| 2026-05-08 03:14 | 31.23980 | -102.44225 | 38008 ft | 377 kts | 271° |
| 2026-05-08 03:15 | 31.24944 | -102.50255 | 37991 ft | 378 kts | 271° |
| 2026-05-08 03:15 | 31.25953 | -102.56294 | 37988 ft | 379 kts | 271° |
| 2026-05-08 03:16 | 31.26938 | -102.62336 | 37987 ft | 378 kts | 271° |
| 2026-05-08 03:16 | 31.27923 | -102.68373 | 37982 ft | 378 kts | 271° |
| 2026-05-08 03:17 | 31.28910 | -102.74419 | 37983 ft | 379 kts | 271° |
| 2026-05-08 03:17 | 31.29939 | -102.80473 | 37981 ft | 381 kts | 271° |
| 2026-05-08 03:18 | 31.30936 | -102.86553 | 37973 ft | 381 kts | 271° |
| 2026-05-08 03:18 | 31.31914 | -102.92608 | 37967 ft | 381 kts | 271° |
| 2026-05-08 03:19 | 31.32900 | -102.98689 | 37968 ft | 380 kts | 271° |
| 2026-05-08 03:19 | 31.33879 | -103.04772 | 37965 ft | 380 kts | 271° |
| 2026-05-08 03:20 | 31.34856 | -103.10864 | 37960 ft | 381 kts | 271° |
| 2026-05-08 03:20 | 31.35832 | -103.16943 | 37969 ft | 382 kts | 270° |
| 2026-05-08 03:21 | 31.36803 | -103.23061 | 37959 ft | 383 kts | 270° |
| 2026-05-08 03:21 | 31.37769 | -103.29156 | 37960 ft | 383 kts | 270° |
| 2026-05-08 03:22 | 31.38752 | -103.35321 | 37958 ft | 382 kts | 270° |
| 2026-05-08 03:22 | 31.39722 | -103.41408 | 37952 ft | 382 kts | 270° |
| 2026-05-08 03:23 | 31.40688 | -103.47524 | 37953 ft | 382 kts | 270° |
| 2026-05-08 03:23 | 31.41653 | -103.53658 | 37955 ft | 383 kts | 270° |
| 2026-05-08 03:24 | 31.42605 | -103.59789 | 37962 ft | 383 kts | 270° |
| 2026-05-08 03:24 | 31.43570 | -103.65935 | 37956 ft | 384 kts | 270° |
| 2026-05-08 03:25 | 31.43888 | -103.67954 | 37953 ft | 384 kts | 270° |
| 2026-05-08 03:25 | 31.45539 | -103.78599 | 37962 ft | 384 kts | 270° |
| 2026-05-08 03:26 | 31.46497 | -103.84747 | 37963 ft | 384 kts | 270° |
| 2026-05-08 03:26 | 31.47445 | -103.90962 | 37961 ft | 385 kts | 270° |
| 2026-05-08 03:27 | 31.48384 | -103.97098 | 37965 ft | 385 kts | 270° |
| 2026-05-08 03:27 | 31.49163 | -104.02282 | 37967 ft | 386 kts | 270° |
| 2026-05-08 03:28 | 31.50256 | -104.09473 | 37969 ft | 386 kts | 270° |
| 2026-05-08 03:28 | 31.51212 | -104.15661 | 37969 ft | 386 kts | 270° |
| 2026-05-08 03:29 | 31.52158 | -104.21844 | 38001 ft | 385 kts | 270° |
| 2026-05-08 03:29 | 31.52941 | -104.27032 | 37976 ft | 386 kts | 270° |
| 2026-05-08 03:30 | 31.54327 | -104.36300 | 37970 ft | 386 kts | 270° |
| 2026-05-08 03:31 | 31.56172 | -104.48693 | 37963 ft | 386 kts | 270° |
| 2026-05-08 03:32 | 31.57562 | -104.58007 | 37962 ft | 386 kts | 270° |
| 2026-05-08 03:32 | 31.58487 | -104.64207 | 37963 ft | 386 kts | 270° |
| 2026-05-08 03:33 | 31.59406 | -104.70420 | 37957 ft | 386 kts | 270° |
| 2026-05-08 03:33 | 31.60312 | -104.76628 | 37952 ft | 386 kts | 270° |
| 2026-05-08 03:34 | 31.61223 | -104.82840 | 37949 ft | 386 kts | 270° |
| 2026-05-08 03:34 | 31.62124 | -104.89011 | 37947 ft | 386 kts | 270° |
| 2026-05-08 03:35 | 31.63035 | -104.95264 | 37945 ft | 387 kts | 270° |
| 2026-05-08 03:35 | 31.63939 | -105.01518 | 37937 ft | 388 kts | 270° |
| 2026-05-08 03:36 | 31.64840 | -105.07761 | 37919 ft | 388 kts | 270° |
| 2026-05-08 03:36 | 31.65731 | -105.14015 | 37920 ft | 388 kts | 270° |
| 2026-05-08 03:37 | 31.66614 | -105.20257 | 37918 ft | 388 kts | 270° |
| 2026-05-08 03:37 | 31.67504 | -105.26509 | 37910 ft | 388 kts | 270° |
| 2026-05-08 03:38 | 31.68400 | -105.32770 | 37915 ft | 392 kts | 270° |
| 2026-05-08 03:38 | 31.69307 | -105.39103 | 37915 ft | 394 kts | 270° |
| 2026-05-08 03:39 | 31.70209 | -105.45451 | 37895 ft | 394 kts | 270° |
| 2026-05-08 03:39 | 31.71099 | -105.51808 | 37892 ft | 394 kts | 270° |
| 2026-05-08 03:40 | 31.71989 | -105.58158 | 37893 ft | 394 kts | 270° |
| 2026-05-08 03:40 | 31.72878 | -105.64497 | 37912 ft | 394 kts | 270° |
| 2026-05-08 03:41 | 31.73767 | -105.70903 | 37898 ft | 398 kts | 270° |
| 2026-05-08 03:41 | 31.74658 | -105.77325 | 37900 ft | 399 kts | 270° |
| 2026-05-08 03:42 | 31.75547 | -105.83760 | 37899 ft | 399 kts | 270° |
| 2026-05-08 03:42 | 31.76433 | -105.90207 | 37897 ft | 399 kts | 270° |
| 2026-05-08 03:43 | 31.77311 | -105.96629 | 37884 ft | 399 kts | 270° |
| 2026-05-08 03:43 | 31.78189 | -106.03077 | 37902 ft | 401 kts | 270° |
| 2026-05-08 03:44 | 31.79073 | -106.09571 | 37876 ft | 402 kts | 270° |
| 2026-05-08 03:44 | 31.79952 | -106.16047 | 37889 ft | 402 kts | 270° |
| 2026-05-08 03:45 | 31.80828 | -106.22545 | 37874 ft | 402 kts | 270° |
| 2026-05-08 03:45 | 31.81649 | -106.29038 | 37871 ft | 399 kts | 268° |
| 2026-05-08 03:46 | 31.82148 | -106.35542 | 37919 ft | 398 kts | 267° |
| 2026-05-08 03:46 | 31.82633 | -106.42080 | 37871 ft | 404 kts | 268° |
| 2026-05-08 03:47 | 31.83127 | -106.48680 | 37867 ft | 406 kts | 267° |
| 2026-05-08 03:47 | 31.83619 | -106.55259 | 37860 ft | 405 kts | 268° |
| 2026-05-08 03:48 | 31.84110 | -106.61864 | 37864 ft | 405 kts | 268° |
| 2026-05-08 03:48 | 31.84597 | -106.68499 | 37860 ft | 405 kts | 267° |
| 2026-05-08 03:49 | 31.85075 | -106.75092 | 37866 ft | 408 kts | 268° |
| 2026-05-08 03:49 | 31.85557 | -106.81762 | 37856 ft | 409 kts | 268° |
| 2026-05-08 03:50 | 31.86036 | -106.88447 | 37855 ft | 409 kts | 268° |
| 2026-05-08 03:50 | 31.86510 | -106.95117 | 37852 ft | 409 kts | 268° |
| 2026-05-08 03:51 | 31.86984 | -107.01793 | 37850 ft | 410 kts | 268° |
| 2026-05-08 03:51 | 31.87452 | -107.08484 | 37855 ft | 413 kts | 268° |
| 2026-05-08 03:52 | 31.87927 | -107.15256 | 37847 ft | 416 kts | 268° |
| 2026-05-08 03:52 | 31.88397 | -107.22048 | 37851 ft | 416 kts | 268° |
| 2026-05-08 03:53 | 31.88862 | -107.28839 | 37847 ft | 416 kts | 268° |
| 2026-05-08 03:53 | 31.89319 | -107.35627 | 37844 ft | 416 kts | 268° |
| 2026-05-08 03:54 | 31.89777 | -107.42426 | 37851 ft | 419 kts | 268° |
| 2026-05-08 03:54 | 31.90239 | -107.49291 | 37845 ft | 422 kts | 268° |
| 2026-05-08 03:55 | 31.90698 | -107.56126 | 37845 ft | 422 kts | 268° |
| 2026-05-08 03:55 | 31.91156 | -107.63060 | 37869 ft | 423 kts | 268° |
| 2026-05-08 03:56 | 31.91602 | -107.69929 | 37852 ft | 425 kts | 268° |
| 2026-05-08 03:56 | 31.92054 | -107.76898 | 37858 ft | 427 kts | 268° |
| 2026-05-08 03:57 | 31.92522 | -107.83897 | 37843 ft | 430 kts | 269° |
| 2026-05-08 03:57 | 31.93002 | -107.90937 | 37847 ft | 430 kts | 269° |
| 2026-05-08 03:58 | 31.93471 | -107.97955 | 37842 ft | 431 kts | 269° |
| 2026-05-08 03:58 | 31.93938 | -108.04993 | 37842 ft | 430 kts | 269° |
| 2026-05-08 03:59 | 31.94399 | -108.11973 | 37852 ft | 430 kts | 269° |
| 2026-05-08 03:59 | 31.94860 | -108.19032 | 37856 ft | 430 kts | 269° |
| 2026-05-08 04:00 | 31.95314 | -108.26064 | 37849 ft | 430 kts | 269° |
| 2026-05-08 04:00 | 31.95764 | -108.33092 | 37851 ft | 430 kts | 268° |
| 2026-05-08 04:01 | 31.96207 | -108.40110 | 37851 ft | 430 kts | 268° |
| 2026-05-08 04:01 | 31.96645 | -108.47103 | 37861 ft | 433 kts | 269° |
| 2026-05-08 04:02 | 31.97089 | -108.54217 | 37852 ft | 434 kts | 269° |
| 2026-05-08 04:02 | 31.97531 | -108.61304 | 37850 ft | 434 kts | 269° |
| 2026-05-08 04:03 | 31.97963 | -108.68343 | 37850 ft | 434 kts | 269° |
| 2026-05-08 04:03 | 31.98609 | -108.78960 | 37865 ft | 434 kts | 269° |
| 2026-05-08 04:04 | 31.99035 | -108.86071 | 37850 ft | 435 kts | 269° |
| 2026-05-08 04:04 | 31.99457 | -108.93203 | 37840 ft | 436 kts | 269° |
| 2026-05-08 04:05 | 31.99875 | -109.00318 | 37848 ft | 435 kts | 269° |
| 2026-05-08 04:05 | 32.00224 | -109.06280 | 37846 ft | 435 kts | 269° |
| 2026-05-08 04:06 | 32.00632 | -109.13384 | 37878 ft | 436 kts | 269° |
| 2026-05-08 04:06 | 32.01041 | -109.20512 | 37850 ft | 438 kts | 269° |
| 2026-05-08 04:07 | 32.01449 | -109.27694 | 37362 ft | 438 kts | 269° |
| 2026-05-08 04:07 | 32.01650 | -109.31258 | 36806 ft | 437 kts | 269° |
| 2026-05-08 04:07 | 32.01850 | -109.34837 | 36215 ft | 437 kts | 269° |
| 2026-05-08 04:08 | 32.02047 | -109.38413 | 35635 ft | 438 kts | 269° |
| 2026-05-08 04:08 | 32.02245 | -109.41999 | 35068 ft | 439 kts | 269° |
| 2026-05-08 04:08 | 32.02441 | -109.45595 | 34499 ft | 440 kts | 269° |
| 2026-05-08 04:08 | 32.02638 | -109.49209 | 33985 ft | 446 kts | 270° |
| 2026-05-08 04:09 | 32.02834 | -109.52854 | 33347 ft | 441 kts | 270° |
| 2026-05-08 04:09 | 32.03030 | -109.56412 | 32682 ft | 432 kts | 270° |
| 2026-05-08 04:09 | 32.03220 | -109.59949 | 32069 ft | 432 kts | 270° |
| 2026-05-08 04:09 | 32.03410 | -109.63483 | 31466 ft | 431 kts | 270° |
| 2026-05-08 04:10 | 32.03598 | -109.67003 | 30879 ft | 429 kts | 270° |
| 2026-05-08 04:10 | 32.03785 | -109.70495 | 30306 ft | 425 kts | 270° |
| 2026-05-08 04:10 | 32.03970 | -109.74009 | 29726 ft | 430 kts | 270° |
| 2026-05-08 04:10 | 32.04155 | -109.77478 | 29041 ft | 420 kts | 270° |
| 2026-05-08 04:11 | 32.04334 | -109.80899 | 28399 ft | 417 kts | 271° |
| 2026-05-08 04:11 | 32.04509 | -109.84319 | 27762 ft | 419 kts | 271° |
| 2026-05-08 04:11 | 32.04685 | -109.87738 | 27139 ft | 417 kts | 271° |
| 2026-05-08 04:11 | 32.04860 | -109.91137 | 26553 ft | 414 kts | 272° |
| 2026-05-08 04:12 | 32.05034 | -109.94554 | 25954 ft | 411 kts | 272° |
| 2026-05-08 04:12 | 32.05207 | -109.97951 | 25362 ft | 408 kts | 272° |
| 2026-05-08 04:12 | 32.05374 | -110.01243 | 24790 ft | 405 kts | 272° |
| 2026-05-08 04:12 | 32.05541 | -110.04557 | 24234 ft | 405 kts | 272° |
| 2026-05-08 04:13 | 32.05707 | -110.07876 | 23910 ft | 407 kts | 272° |
| 2026-05-08 04:13 | 32.05874 | -110.11213 | 23826 ft | 408 kts | 272° |
| 2026-05-08 04:13 | 32.06039 | -110.14549 | 23831 ft | 409 kts | 273° |
| 2026-05-08 04:13 | 32.06204 | -110.17912 | 23831 ft | 411 kts | 273° |
| 2026-05-08 04:14 | 32.06369 | -110.21270 | 23820 ft | 411 kts | 273° |
| 2026-05-08 04:14 | 32.06527 | -110.24628 | 23572 ft | 409 kts | 273° |
| 2026-05-08 04:14 | 32.06682 | -110.27969 | 23039 ft | 406 kts | 273° |
| 2026-05-08 04:14 | 32.06839 | -110.31283 | 22328 ft | 401 kts | 273° |
| 2026-05-08 04:15 | 32.06993 | -110.34597 | 21587 ft | 397 kts | 273° |
| 2026-05-08 04:15 | 32.07144 | -110.37833 | 20859 ft | 394 kts | 273° |
| 2026-05-08 04:15 | 32.07292 | -110.41041 | 20149 ft | 390 kts | 272° |
| 2026-05-08 04:15 | 32.07438 | -110.44228 | 19437 ft | 387 kts | 272° |
| 2026-05-08 04:16 | 32.07582 | -110.47396 | 18754 ft | 384 kts | 272° |
| 2026-05-08 04:16 | 32.07722 | -110.50490 | 18075 ft | 381 kts | 273° |
| 2026-05-08 04:16 | 32.07863 | -110.53608 | 17303 ft | 377 kts | 273° |
| 2026-05-08 04:16 | 32.08000 | -110.56683 | 16547 ft | 374 kts | 273° |
| 2026-05-08 04:17 | 32.08137 | -110.59736 | 15819 ft | 371 kts | 273° |
| 2026-05-08 04:17 | 32.08272 | -110.62762 | 15105 ft | 368 kts | 273° |
| 2026-05-08 04:17 | 32.08406 | -110.65791 | 14369 ft | 361 kts | 273° |
| 2026-05-08 04:17 | 32.08534 | -110.68722 | 13668 ft | 354 kts | 273° |
| 2026-05-08 04:18 | 32.08659 | -110.71581 | 12913 ft | 347 kts | 273° |
| 2026-05-08 04:18 | 32.08779 | -110.74343 | 12179 ft | 341 kts | 273° |
| 2026-05-08 04:18 | 32.08901 | -110.77138 | 11454 ft | 336 kts | 273° |
| 2026-05-08 04:18 | 32.09018 | -110.79878 | 10753 ft | 333 kts | 273° |
| 2026-05-08 04:19 | 32.09133 | -110.82576 | 10052 ft | 325 kts | 274° |
| 2026-05-08 04:19 | 32.09244 | -110.85169 | 9330 ft | 316 kts | 274° |
| 2026-05-08 04:19 | 32.09355 | -110.87782 | 8572 ft | 307 kts | 274° |
| 2026-05-08 04:19 | 32.09629 | -110.90200 | 7874 ft | 299 kts | 286° |
| 2026-05-08 04:20 | 32.10538 | -110.92354 | 7441 ft | 290 kts | 310° |
| 2026-05-08 04:20 | 32.11974 | -110.93918 | 7162 ft | 283 kts | 323° |
| 2026-05-08 04:20 | 32.13560 | -110.95350 | 6919 ft | 283 kts | 324° |
| 2026-05-08 04:20 | 32.15117 | -110.96759 | 6686 ft | 281 kts | 323° |
| 2026-05-08 04:21 | 32.16654 | -110.98162 | 6459 ft | 276 kts | 324° |
| 2026-05-08 04:21 | 32.18121 | -110.99511 | 6222 ft | 269 kts | 323° |
| 2026-05-08 04:21 | 32.19636 | -111.00911 | 5967 ft | 272 kts | 323° |
| 2026-05-08 04:21 | 32.21118 | -111.02283 | 5826 ft | 270 kts | 323° |
| 2026-05-08 04:22 | 32.22581 | -111.03641 | 5664 ft | 264 kts | 323° |
| 2026-05-08 04:22 | 32.23995 | -111.04955 | 5404 ft | 252 kts | 322° |
| 2026-05-08 04:22 | 32.25335 | -111.06206 | 5106 ft | 238 kts | 323° |
| 2026-05-08 04:22 | 32.26587 | -111.07398 | 4833 ft | 224 kts | 322° |
| 2026-05-08 04:23 | 32.27772 | -111.08554 | 4563 ft | 224 kts | 322° |
| 2026-05-08 04:23 | 32.28969 | -111.09724 | 4352 ft | 219 kts | 322° |
| 2026-05-08 04:23 | 32.30145 | -111.10873 | 4245 ft | 221 kts | 322° |
| 2026-05-08 04:23 | 32.31324 | -111.12022 | 4225 ft | 220 kts | 322° |
| 2026-05-08 04:24 | 32.32486 | -111.13155 | 4224 ft | 215 kts | 322° |
| 2026-05-08 04:24 | 32.33651 | -111.14292 | 4211 ft | 220 kts | 321° |
| 2026-05-08 04:24 | 32.34845 | -111.15462 | 4335 ft | 224 kts | 321° |
| 2026-05-08 04:24 | 32.36049 | -111.16635 | 4354 ft | 224 kts | 322° |
| 2026-05-08 04:25 | 32.37242 | -111.17797 | 4302 ft | 220 kts | 322° |
| 2026-05-08 04:25 | 32.38416 | -111.18939 | 4195 ft | 221 kts | 323° |
| 2026-05-08 04:25 | 32.39767 | -111.19741 | 4022 ft | 216 kts | 345° |
| 2026-05-08 04:25 | 32.41183 | -111.20110 | 3811 ft | 199 kts | 349° |
| 2026-05-08 04:26 | 32.42512 | -111.20416 | 3501 ft | 192 kts | 348° |
| 2026-05-08 04:26 | 32.43765 | -111.21001 | 3134 ft | 196 kts | 334° |
| 2026-05-08 04:26 | 32.44968 | -111.21740 | 2896 ft | 195 kts | 325° |
| 2026-05-08 04:26 | 32.45993 | -111.22756 | 3164 ft | 192 kts | 319° |
| 2026-05-08 04:27 | 32.46995 | -111.23859 | 3619 ft | 194 kts | 318° |
| 2026-05-08 04:27 | 32.48000 | -111.24959 | 4079 ft | 197 kts | 318° |
| 2026-05-08 04:27 | 32.49007 | -111.26061 | 4328 ft | 200 kts | 318° |
| 2026-05-08 04:27 | 32.50026 | -111.27171 | 4373 ft | 199 kts | 318° |
| 2026-05-08 04:28 | 32.51046 | -111.28283 | 4375 ft | 197 kts | 319° |
| 2026-05-08 04:28 | 32.52052 | -111.29400 | 4360 ft | 199 kts | 318° |
| 2026-05-08 04:28 | 32.53071 | -111.30504 | 4322 ft | 198 kts | 318° |
| 2026-05-08 04:28 | 32.54058 | -111.31585 | 4143 ft | 180 kts | 319° |
| 2026-05-08 04:29 | 32.54917 | -111.32547 | 3887 ft | 160 kts | 319° |
| 2026-05-08 04:29 | 32.55588 | -111.33435 | 3601 ft | 137 kts | 305° |
| 2026-05-08 04:29 | 32.55755 | -111.34534 | 3239 ft | 141 kts | 269° |
| 2026-05-08 04:29 | 32.55384 | -111.35624 | 2944 ft | 145 kts | 240° |
| 2026-05-08 04:30 | 32.54590 | -111.36290 | 2806 ft | 138 kts | 196° |
| 2026-05-08 04:30 | 32.53731 | -111.35910 | 3081 ft | 142 kts | 135° |
| 2026-05-08 04:30 | 32.53049 | -111.34992 | 2810 ft | 154 kts | 127° |
| 2026-05-08 04:30 | 32.52292 | -111.34072 | 2475 ft | 152 kts | 134° |
| 2026-05-08 04:31 | 32.51551 | -111.33190 | 2283 ft | 152 kts | 133° |
| 2026-05-08 04:31 | 32.50709 | -111.32213 | 3098 ft | 187 kts | 134° |
| 2026-05-08 04:31 | 32.49681 | -111.31054 | 3826 ft | 216 kts | 135° |
| 2026-05-08 04:31 | 32.48637 | -111.29889 | 4256 ft | 200 kts | 136° |
| 2026-05-08 04:32 | 32.47576 | -111.28698 | 4172 ft | 201 kts | 135° |
| 2026-05-08 04:32 | 32.46820 | -111.27322 | 3818 ft | 213 kts | 103° |
| 2026-05-08 04:32 | 32.46775 | -111.25618 | 3857 ft | 204 kts | 73° |
| 2026-05-08 04:32 | 32.47450 | -111.24182 | 3867 ft | 199 kts | 40° |
| 2026-05-08 04:33 | 32.48602 | -111.23288 | 3880 ft | 200 kts | 25° |
| 2026-05-08 04:33 | 32.49909 | -111.22898 | 3861 ft | 195 kts | 2° |
| 2026-05-08 04:33 | 32.51252 | -111.22904 | 3846 ft | 192 kts | 350° |
| 2026-05-08 04:33 | 32.52518 | -111.23401 | 3846 ft | 194 kts | 334° |
| 2026-05-08 04:34 | 32.53605 | -111.24338 | 3852 ft | 195 kts | 320° |
| 2026-05-08 04:34 | 32.54557 | -111.25472 | 3854 ft | 194 kts | 311° |
| 2026-05-08 04:34 | 32.55384 | -111.26738 | 3865 ft | 195 kts | 309° |
| 2026-05-08 04:34 | 32.56210 | -111.28026 | 3842 ft | 196 kts | 309° |
| 2026-05-08 04:35 | 32.57039 | -111.29327 | 3832 ft | 199 kts | 309° |
| 2026-05-08 04:35 | 32.57780 | -111.30696 | 3851 ft | 196 kts | 298° |
| 2026-05-08 04:35 | 32.58345 | -111.32123 | 3875 ft | 181 kts | 292° |
| 2026-05-08 04:35 | 32.58327 | -111.33464 | 3841 ft | 152 kts | 251° |
| 2026-05-08 04:36 | 32.57593 | -111.34297 | 3715 ft | 140 kts | 213° |
| 2026-05-08 04:36 | 32.56718 | -111.34802 | 3633 ft | 140 kts | 203° |
| 2026-05-08 04:36 | 32.55759 | -111.35112 | 3418 ft | 148 kts | 195° |
| 2026-05-08 04:36 | 32.54724 | -111.35363 | 3115 ft | 153 kts | 191° |
| 2026-05-08 04:37 | 32.53653 | -111.35396 | 2799 ft | 152 kts | 177° |
| 2026-05-08 04:37 | 32.52731 | -111.34889 | 2557 ft | 144 kts | 126° |
| 2026-05-08 04:37 | 32.52141 | -111.33913 | 2235 ft | 149 kts | 130° |
| 2026-05-08 04:37 | 32.51645 | -111.33330 | 1944 ft | 148 kts | 133° |
| 2026-05-08 04:38 | 32.50995 | -111.32538 | 1893 ft | 119 kts | 135° |
| 2026-05-08 04:38 | 32.50672 | -111.32167 | 1899 ft | 12 kts | 135° |
| 2026-05-08 04:38 | 32.50564 | -111.32037 | 1902 ft | 25 kts | 134° |
| 2026-05-08 04:38 | 32.50418 | -111.31866 | 1902 ft | 36 kts | 135° |
| 2026-05-08 04:39 | 32.50363 | -111.31778 | 1900 ft | 3 kts | 58° |
| 2026-05-08 04:39 | 32.50428 | -111.31716 | 1894 ft | 18 kts | 28° |
| 2026-05-08 04:39 | 32.50509 | -111.31736 | 1902 ft | 4 kts | 324° |
| 2026-05-08 04:39 | 32.50542 | -111.31763 | 1902 ft | 7 kts | 322° |
| 2026-05-08 04:40 | 32.50589 | -111.31818 | 1893 ft | 13 kts | 314° |
| 2026-05-08 04:40 | 32.50667 | -111.31912 | 1901 ft | 19 kts | 314° |
| 2026-05-08 04:40 | 32.50730 | -111.31986 | 1900 ft | 8 kts | 322° |
| 2026-05-08 04:40 | 32.50771 | -111.31927 | 1886 ft | 12 kts | 22° |
| 2026-05-08 04:41 | 32.50786 | -111.31959 | 1899 ft | 0 kts | 214° |